»·PEaware :: N50212 KSNA-KSMX

N50212 :: KSNA-KSMX

FLIGHT INFORMATION

Flight Status: Arrived
Operator: Privately registered:
United States
More flights under this callsign
Pilot: Brad H. (9994)
Aircraft: PIPER PA-34 SENECA
(PA34)
More flights by this aircraft type
Origin: KSNA John Wayne-Orange Co
United States
Destination: KSMX Santa Maria Pub/Capt Hancock
United States
More flights between these airports :: More routes between these airports
Route: +ANAHM9 VTU V25 RZS
File this flight plan on PilotEdge
Remarks:
Altitude:
(Current/Filed)
5,000ft
Speed:
(Current/Filed)
140kts
Departed: 09-Jan-18 08:20 AM
Arrived: 09-Jan-18 09:31 AM
Distance/Time
Traveled:
148nm/1:11
Distance/Time
To Go:
Arrived

Flight Plot

Page will automatically refresh every two minutes.

Flight plan parsing failed; only flown route is shown


Map Options




Map Legend


Flown Route
Filed Route
Departure Airport
Arrival Airport
Navaid (VOR, NDB)
Fix

Horizontal Profiles

Position Reports

Time Latitude Longitude Heading Altitude Ground
Speed
09-Jan-18 08:06 33.672482 -117.866883 217 47ft 0kts
09-Jan-18 08:07 33.672482 -117.866883 217 47ft 0kts
09-Jan-18 08:08 33.672482 -117.866883 217 47ft 0kts
09-Jan-18 08:09 33.672482 -117.866883 217 47ft 0kts
09-Jan-18 08:10 33.672482 -117.866883 217 47ft 0kts
09-Jan-18 08:11 33.672482 -117.866883 217 47ft 0kts
09-Jan-18 08:12 33.672482 -117.866883 217 47ft 0kts
09-Jan-18 08:13 33.672482 -117.866883 217 47ft 0kts
09-Jan-18 08:14 33.672482 -117.866883 217 47ft 0kts
09-Jan-18 08:15 33.672482 -117.866883 217 47ft 0kts
09-Jan-18 08:16 33.672482 -117.866883 217 47ft 0kts
09-Jan-18 08:17 33.672482 -117.866883 217 47ft 0kts
09-Jan-18 08:18 33.672428 -117.867190 298 48ft 0kts
09-Jan-18 08:19 33.672428 -117.867190 298 48ft 0kts
09-Jan-18 08:20 33.672444 -117.867220 299 48ft 3kts
09-Jan-18 08:21 33.675192 -117.866400 32 45ft 23kts
09-Jan-18 08:22 33.679691 -117.863561 13 39ft 12kts
09-Jan-18 08:23 33.679787 -117.863549 352 39ft 0kts
09-Jan-18 08:24 33.679792 -117.863550 351 39ft 0kts
09-Jan-18 08:25 33.680092 -117.864170 234 39ft 10kts
09-Jan-18 08:26 33.665044 -117.875217 211 638ft 111kts
09-Jan-18 08:27 33.642386 -117.896140 228 1644ft 100kts
09-Jan-18 08:28 33.628568 -117.914482 233 2351ft 92kts
09-Jan-18 08:29 33.611015 -117.939323 232 3363ft 105kts
09-Jan-18 08:30 33.591659 -117.966979 264 4356ft 101kts
09-Jan-18 08:31 33.606520 -117.992038 312 5033ft 110kts
09-Jan-18 08:32 33.625715 -118.017044 311 5037ft 129kts
09-Jan-18 08:33 33.654756 -118.055930 311 5036ft 136kts
09-Jan-18 08:34 33.679685 -118.089377 311 5035ft 132kts
09-Jan-18 08:35 33.699934 -118.116320 310 5033ft 131kts
09-Jan-18 08:36 33.728579 -118.154332 309 5026ft 131kts
09-Jan-18 08:37 33.749066 -118.181518 308 5021ft 131kts
09-Jan-18 08:38 33.773702 -118.214205 307 5014ft 132kts
09-Jan-18 08:39 33.802597 -118.252545 306 5010ft 133kts
09-Jan-18 08:40 33.823438 -118.280345 306 4992ft 135kts
09-Jan-18 08:41 33.848549 -118.313966 305 4994ft 135kts
09-Jan-18 08:42 33.873837 -118.348053 305 4997ft 137kts
09-Jan-18 08:43 33.899231 -118.382419 305 4998ft 138kts
09-Jan-18 08:44 33.924777 -118.417026 305 4996ft 139kts
09-Jan-18 08:45 33.942177 -118.456533 284 4989ft 133kts
09-Jan-18 08:46 33.954727 -118.498777 284 4982ft 134kts
09-Jan-18 08:47 33.967554 -118.541667 284 4976ft 136kts
09-Jan-18 08:48 33.980450 -118.584948 283 4974ft 137kts
09-Jan-18 08:49 33.993151 -118.628317 284 4974ft 136kts
09-Jan-18 08:50 34.005636 -118.671319 285 4973ft 135kts
09-Jan-18 08:51 34.017758 -118.713331 285 5100ft 125kts
09-Jan-18 08:52 34.028482 -118.749803 286 5561ft 107kts
09-Jan-18 08:53 34.038004 -118.782282 286 5978ft 103kts
09-Jan-18 08:54 34.048240 -118.818718 287 5982ft 122kts
09-Jan-18 08:55 34.059565 -118.858633 288 5979ft 128kts
09-Jan-18 08:56 34.071307 -118.899557 289 5978ft 130kts
09-Jan-18 08:57 34.083309 -118.941126 290 5978ft 131kts
09-Jan-18 08:58 34.095396 -118.983154 291 5977ft 133kts
09-Jan-18 08:59 34.107156 -119.024052 291 5977ft 134kts
09-Jan-18 09:00 34.123603 -119.066136 305 5982ft 147kts
09-Jan-18 09:01 34.147427 -119.108375 303 5976ft 158kts
09-Jan-18 09:02 34.172420 -119.152799 302 5973ft 160kts
09-Jan-18 09:03 34.197304 -119.197375 301 5971ft 160kts
09-Jan-18 09:04 34.222069 -119.242092 300 5971ft 160kts
09-Jan-18 09:05 34.246740 -119.286999 300 5971ft 160kts
09-Jan-18 09:06 34.271367 -119.332020 301 5984ft 159kts
09-Jan-18 09:07 34.295739 -119.376810 301 5994ft 160kts
09-Jan-18 09:08 34.320223 -119.422140 302 5989ft 161kts
09-Jan-18 09:09 34.354231 -119.454671 350 5981ft 156kts
09-Jan-18 09:10 34.394204 -119.459839 305 5970ft 158kts
09-Jan-18 09:11 34.412200 -119.503235 335 5954ft 140kts
09-Jan-18 09:12 34.434664 -119.534338 291 5961ft 134kts
09-Jan-18 09:13 34.447674 -119.576884 291 5960ft 135kts
09-Jan-18 09:14 34.460723 -119.619529 291 5960ft 135kts
09-Jan-18 09:15 34.473790 -119.662210 291 5960ft 135kts
09-Jan-18 09:16 34.486831 -119.704777 291 5960ft 135kts
09-Jan-18 09:17 34.500761 -119.746977 294 5960ft 134kts
09-Jan-18 09:18 34.520620 -119.784839 312 5960ft 134kts
09-Jan-18 09:19 34.545887 -119.818161 312 5958ft 134kts
09-Jan-18 09:20 34.570883 -119.853285 312 5959ft 145kts
09-Jan-18 09:21 34.598152 -119.892623 312 5959ft 157kts
09-Jan-18 09:22 34.627067 -119.933206 312 5956ft 160kts
09-Jan-18 09:23 34.656928 -119.973932 312 5954ft 162kts
09-Jan-18 09:24 34.687509 -120.014436 312 5952ft 163kts
09-Jan-18 09:25 34.727201 -120.066627 312 5952ft 163kts
09-Jan-18 09:26 34.758075 -120.106922 312 5949ft 163kts
09-Jan-18 09:27 34.789380 -120.146986 312 5946ft 163kts
09-Jan-18 09:28 34.821030 -120.186337 312 5941ft 163kts
09-Jan-18 09:29 34.852483 -120.226039 301 5716ft 163kts
09-Jan-18 09:30 34.869665 -120.272013 277 4866ft 143kts
09-Jan-18 09:31 34.880311 -120.315876 277 3718ft 131kts
09-Jan-18 09:32 34.884747 -120.359085 273 2721ft 126kts
09-Jan-18 09:33 34.904023 -120.396611 302 2070ft 132kts
09-Jan-18 09:34 34.928923 -120.428796 305 1981ft 122kts
09-Jan-18 09:35 34.925548 -120.462393 221 1204ft 98kts
09-Jan-18 09:36 34.905082 -120.460413 136 276ft 78kts
09-Jan-18 09:37 34.900706 -120.453567 357 237ft 0kts
09-Jan-18 09:38 34.900706 -120.453567 357 237ft 0kts

Navigation Log

Ident Type
Flight plan parsing failed, navigation log unavailable